Graham, Washington
Current Conditions -  °F | °C
As of 11:58 AM on Thursday 23 Oct 2014 (Local Time) from KTCM Reporting Station
Scattered Clouds Scattered Clouds  
Wind Chill: 56°   Ceiling: Unl
Heat Index: 56°   Visibility: 10mi
Dew Point: 53°   Wind: 14mph
Humidity: 89%   Direction: 180°S
Pressure: 29.83"   Gusts: NA
Location:  47.03°N, 122.3°W
Report Text: KTCM 231858Z AUTO 18012KT 10SM FEW050 SCT095 13/11 A2983 RMK AO2 RAE1817 SLP105 P0001 T01310114 $
Loading
Personal Weather Stations






























Interactive Weather Map
Tropical Storm Tracking
New forecast layout! Learn more

10-Day Weather Forecast

Advertisements
Track Severe Weather on mobile